No particular awareness of the weather is required.    There are no Weather-warnings


Meteo18 Weather Cam more information Meteo18 Weather Cam


Thunder radar more information blitzortung!


Rain radar more information rain snow radar


Visit our other weather sites:

Template documentation
and downloads

And another site



Weather Underground History page Text

Daily Summary for January 12, 2018 Units:  Both    English   Metric
« Previous Day
Next Day »
Daily Weekly Monthly Yearly Custom
  High: Low: Average:
Temperature: TemperatureC °F /  -17.8 °C 3.4 °F /  -15.9 °C 5.8 °F /  -14.6 °C
Dew Point: DewpointC °F /  -17.8 °C 3.0 °F /  -16.1 °C 4.9 °F /  -15.1 °C
Humidity: Humidity % 88 % 94 %
Wind Speed: WindSpeedKMH mph /  0 km/h - 4 mph /  6.4 km/h
Wind Gust: WindSpeedGustKMH mph /  0 km/h - -
Wind:- - SW
Pressure: PressurehPa in /  0 hPa 1021.6 in /  34591.4 hPa -
Precipitation: 1.5 in /  38.1 mm    
Historical Graphs
 
 
Tabular Data for January 12, 2018
Time Temperature Dew Point Pressure Wind Wind Speed Wind Gust Humidity Rainfall Rate (Hourly)
TemperatureC °F /  -17.8 °C DewpointC °F /  -17.8 °C PressurehPa in /  0 hPa Calm     Humidity % HourlyPrecipMM in /  0 mm
00:11 6.1 °F /  -14.4 °C 5.5 °F /  -14.7 °C 1021.6 in /  34591.4 hPa North 1.4 mph /  2.3 km/h 8.0 mph /  12.9 km/h 96 % 0.3 in /  7.62 mm
00:17 6.1 °F /  -14.4 °C 5.4 °F /  -14.8 °C 1021.6 in /  34591.4 hPa North 4.7 mph /  7.6 km/h 8.0 mph /  12.9 km/h 95 % 0.0 in /  0 mm
00:23 6.1 °F /  -14.4 °C 5.4 °F /  -14.8 °C 1021.9 in /  34601.5 hPa NNW 1.4 mph /  2.3 km/h 9.7 mph /  15.6 km/h 95 % 0.0 in /  0 mm
00:27 6.0 °F /  -14.4 °C 5.3 °F /  -14.8 °C 1021.9 in /  34601.5 hPa North 3.2 mph /  5.1 km/h 6.4 mph /  10.3 km/h 95 % 0.0 in /  0 mm
00:33 6.0 °F /  -14.4 °C 5.3 °F /  -14.8 °C 1021.9 in /  34601.5 hPa NNE 3.2 mph /  5.1 km/h 9.7 mph /  15.6 km/h 95 % 0.0 in /  0 mm
00:39 6.0 °F /  -14.4 °C 5.3 °F /  -14.8 °C 1021.9 in /  34601.5 hPa NNE 4.7 mph /  7.6 km/h 9.7 mph /  15.6 km/h 95 % 0.0 in /  0 mm
00:49 6.1 °F /  -14.4 °C 5.4 °F /  -14.8 °C 1021.9 in /  34601.5 hPa NNE 7.9 mph /  12.7 km/h 11.3 mph /  18.2 km/h 95 % 0.0 in /  0 mm
01:01 6.2 °F /  -14.3 °C 5.5 °F /  -14.7 °C 1021.9 in /  34601.5 hPa NNE 6.4 mph /  10.3 km/h 14.5 mph /  23.3 km/h 95 % 0.0 in /  0 mm
01:07 6.2 °F /  -14.3 °C 5.5 °F /  -14.7 °C 1021.9 in /  34601.5 hPa NE 3.2 mph /  5.1 km/h 8.0 mph /  12.9 km/h 95 % 0.0 in /  0 mm
01:13 6.2 °F /  -14.3 °C 5.5 °F /  -14.7 °C 1022.2 in /  34611.7 hPa NNE 7.9 mph /  12.7 km/h 11.3 mph /  18.2 km/h 95 % 0.0 in /  0 mm
01:19 6.2 °F /  -14.3 °C 5.5 °F /  -14.7 °C 1022.2 in /  34611.7 hPa North 1.4 mph /  2.3 km/h 4.8 mph /  7.7 km/h 95 % 0.0 in /  0 mm
01:23 6.2 °F /  -14.3 °C 5.5 °F /  -14.7 °C 1022.2 in /  34611.7 hPa NE 4.7 mph /  7.6 km/h 9.7 mph /  15.6 km/h 95 % 0.0 in /  0 mm
01:29 6.2 °F /  -14.3 °C 5.6 °F /  -14.7 °C 1022.2 in /  34611.7 hPa NNE 1.4 mph /  2.3 km/h 6.4 mph /  10.3 km/h 96 % 0.0 in /  0 mm
01:35 6.2 °F /  -14.3 °C 5.6 °F /  -14.7 °C 1022.2 in /  34611.7 hPa NNE 4.7 mph /  7.6 km/h 8.0 mph /  12.9 km/h 96 % 0.0 in /  0 mm
01:41 6.2 °F /  -14.3 °C 5.6 °F /  -14.7 °C 1022.2 in /  34611.7 hPa NNE 3.2 mph /  5.1 km/h 9.7 mph /  15.6 km/h 96 % 0.0 in /  0 mm
01:47 6.2 °F /  -14.3 °C 5.6 °F /  -14.7 °C 1022.2 in /  34611.7 hPa NNW 4.7 mph /  7.6 km/h 6.4 mph /  10.3 km/h 96 % 0.0 in /  0 mm
01:55 6.2 °F /  -14.3 °C 5.6 °F /  -14.7 °C 1022.2 in /  34611.7 hPa NE 6.4 mph /  10.3 km/h 14.5 mph /  23.3 km/h 96 % 0.0 in /  0 mm
01:59 6.2 °F /  -14.3 °C 5.6 °F /  -14.7 °C 1022.2 in /  34611.7 hPa NW 4.7 mph /  7.6 km/h 9.7 mph /  15.6 km/h 96 % 0.0 in /  0 mm
02:09 6.2 °F /  -14.3 °C 5.6 °F /  -14.7 °C 1022.2 in /  34611.7 hPa NE 7.9 mph /  12.7 km/h 14.5 mph /  23.3 km/h 96 % 0.0 in /  0 mm
02:15 6.2 °F /  -14.3 °C 5.6 °F /  -14.7 °C 1022.6 in /  34625.2 hPa NE 3.2 mph /  5.1 km/h 11.3 mph /  18.2 km/h 96 % 0.0 in /  0 mm
02:21 6.2 °F /  -14.3 °C 5.6 °F /  -14.7 °C 1022.2 in /  34611.7 hPa NNW 4.7 mph /  7.6 km/h 14.5 mph /  23.3 km/h 96 % 0.0 in /  0 mm
02:27 6.1 °F /  -14.4 °C 5.5 °F /  -14.7 °C 1022.6 in /  34625.2 hPa NE 7.9 mph /  12.7 km/h 14.5 mph /  23.3 km/h 96 % 0.0 in /  0 mm
02:33 6.1 °F /  -14.4 °C 5.5 °F /  -14.7 °C 1022.6 in /  34625.2 hPa NW 9.7 mph /  15.6 km/h 12.9 mph /  20.8 km/h 96 % 0.3 in /  7.62 mm
02:39 6.1 °F /  -14.4 °C 5.5 °F /  -14.7 °C 1022.6 in /  34625.2 hPa NNW 6.4 mph /  10.3 km/h 14.5 mph /  23.3 km/h 96 % 0.5 in /  12.7 mm
02:45 6.1 °F /  -14.4 °C 5.5 °F /  -14.7 °C 1022.6 in /  34625.2 hPa NNW 4.7 mph /  7.6 km/h 9.7 mph /  15.6 km/h 96 % 0.5 in /  12.7 mm
02:51 6.0 °F /  -14.4 °C 5.4 °F /  -14.8 °C 1022.6 in /  34625.2 hPa NW 4.7 mph /  7.6 km/h 11.3 mph /  18.2 km/h 96 % 0.5 in /  12.7 mm
03:03 6.0 °F /  -14.4 °C 5.4 °F /  -14.8 °C 1022.9 in /  34635.4 hPa North 13.0 mph /  20.9 km/h 13.0 mph /  20.9 km/h 96 % 1.3 in /  33.02 mm
03:09 6.0 °F /  -14.4 °C 5.4 °F /  -14.8 °C 1022.9 in /  34635.4 hPa NNW 3.2 mph /  5.1 km/h 9.7 mph /  15.6 km/h 96 % 1.5 in /  38.1 mm
03:21 5.9 °F /  -14.5 °C 5.3 °F /  -14.8 °C 1022.9 in /  34635.4 hPa NW 6.4 mph /  10.3 km/h 11.3 mph /  18.2 km/h 96 % 1.5 in /  38.1 mm
03:27 5.9 °F /  -14.5 °C 5.3 °F /  -14.8 °C 1022.9 in /  34635.4 hPa NNW 6.4 mph /  10.3 km/h 11.3 mph /  18.2 km/h 96 % 1.5 in /  38.1 mm
03:33 6.0 °F /  -14.4 °C 5.4 °F /  -14.8 °C 1022.9 in /  34635.4 hPa North 9.7 mph /  15.6 km/h 14.5 mph /  23.3 km/h 96 % 1.5 in /  38.1 mm
03:39 5.9 °F /  -14.5 °C 5.3 °F /  -14.8 °C 1022.9 in /  34635.4 hPa NNE 6.4 mph /  10.3 km/h 12.9 mph /  20.8 km/h 96 % 1.3 in /  33.02 mm
03:51 5.9 °F /  -14.5 °C 5.3 °F /  -14.8 °C 1022.9 in /  34635.4 hPa NNE 3.2 mph /  5.1 km/h 12.9 mph /  20.8 km/h 96 % 1.0 in /  25.4 mm
03:57 5.9 °F /  -14.5 °C 5.3 °F /  -14.8 °C 1022.9 in /  34635.4 hPa NNE 4.7 mph /  7.6 km/h 14.5 mph /  23.3 km/h 96 % 0.8 in /  20.32 mm
04:09 5.9 °F /  -14.5 °C 5.3 °F /  -14.8 °C 1022.9 in /  34635.4 hPa North 7.9 mph /  12.7 km/h 14.5 mph /  23.3 km/h 96 % 0.3 in /  7.62 mm
04:15 5.8 °F /  -14.6 °C 5.2 °F /  -14.9 °C 1022.9 in /  34635.4 hPa North 7.9 mph /  12.7 km/h 12.9 mph /  20.8 km/h 96 % 0.0 in /  0 mm
04:21 5.8 °F /  -14.6 °C 5.2 °F /  -14.9 °C 1022.9 in /  34635.4 hPa NNE 7.9 mph /  12.7 km/h 17.7 mph /  28.5 km/h 96 % 0.0 in /  0 mm
04:28 5.7 °F /  -14.6 °C 5.1 °F /  -14.9 °C 1022.9 in /  34635.4 hPa North 7.9 mph /  12.7 km/h 11.3 mph /  18.2 km/h 96 % 0.0 in /  0 mm
04:34 5.7 °F /  -14.6 °C 5.1 °F /  -14.9 °C 1022.9 in /  34635.4 hPa North 6.4 mph /  10.3 km/h 12.9 mph /  20.8 km/h 96 % 0.0 in /  0 mm
04:40 5.7 °F /  -14.6 °C 5.1 °F /  -14.9 °C 1022.9 in /  34635.4 hPa ENE 1.4 mph /  2.3 km/h 14.5 mph /  23.3 km/h 96 % 0.0 in /  0 mm
04:46 5.7 °F /  -14.6 °C 5.1 °F /  -14.9 °C 1022.9 in /  34635.4 hPa North 6.4 mph /  10.3 km/h 12.9 mph /  20.8 km/h 96 % 0.0 in /  0 mm
04:52 5.7 °F /  -14.6 °C 5.1 °F /  -14.9 °C 1022.9 in /  34635.4 hPa NNW 4.7 mph /  7.6 km/h 14.5 mph /  23.3 km/h 96 % 0.0 in /  0 mm
05:00 5.7 °F /  -14.6 °C 5.1 °F /  -14.9 °C 1022.9 in /  34635.4 hPa North 6.4 mph /  10.3 km/h 12.9 mph /  20.8 km/h 96 % 0.0 in /  0 mm
05:06 5.7 °F /  -14.6 °C 5.1 °F /  -14.9 °C 1023.2 in /  34645.6 hPa North 14.3 mph /  23 km/h 14.5 mph /  23.3 km/h 96 % 0.0 in /  0 mm
05:12 5.7 °F /  -14.6 °C 5.1 °F /  -14.9 °C 1023.2 in /  34645.6 hPa NNW 4.7 mph /  7.6 km/h 12.9 mph /  20.8 km/h 96 % 0.0 in /  0 mm
05:18 5.7 °F /  -14.6 °C 5.0 °F /  -15 °C 1023.2 in /  34645.6 hPa North 6.4 mph /  10.3 km/h 12.9 mph /  20.8 km/h 95 % 0.0 in /  0 mm
05:24 5.7 °F /  -14.6 °C 5.0 °F /  -15 °C 1023.2 in /  34645.6 hPa NNW 7.9 mph /  12.7 km/h 12.9 mph /  20.8 km/h 95 % 0.0 in /  0 mm
05:30 5.7 °F /  -14.6 °C 5.0 °F /  -15 °C 1023.2 in /  34645.6 hPa North 1.4 mph /  2.3 km/h 6.4 mph /  10.3 km/h 95 % 0.0 in /  0 mm
05:42 5.6 °F /  -14.7 °C 4.9 °F /  -15.1 °C 1022.9 in /  34635.4 hPa North 7.9 mph /  12.7 km/h 9.7 mph /  15.6 km/h 95 % 0.0 in /  0 mm
05:48 5.5 °F /  -14.7 °C 4.8 °F /  -15.1 °C 1023.2 in /  34645.6 hPa NNW 3.2 mph /  5.1 km/h 8.0 mph /  12.9 km/h 95 % 0.0 in /  0 mm
05:50 5.5 °F /  -14.7 °C 4.8 °F /  -15.1 °C 1023.2 in /  34645.6 hPa NNW 6.4 mph /  10.3 km/h 9.7 mph /  15.6 km/h 95 % 0.0 in /  0 mm
05:56 5.4 °F /  -14.8 °C 4.7 °F /  -15.2 °C 1023.2 in /  34645.6 hPa NNE 1.4 mph /  2.3 km/h 6.4 mph /  10.3 km/h 95 % 0.0 in /  0 mm
06:02 5.5 °F /  -14.7 °C 4.9 °F /  -15.1 °C 1023.2 in /  34645.6 hPa NNW 4.7 mph /  7.6 km/h 6.4 mph /  10.3 km/h 96 % 0.0 in /  0 mm
06:08 5.6 °F /  -14.7 °C 5.0 °F /  -15 °C 1023.2 in /  34645.6 hPa West 3.2 mph /  5.1 km/h 8.0 mph /  12.9 km/h 96 % 0.0 in /  0 mm
06:14 5.6 °F /  -14.7 °C 5.0 °F /  -15 °C 1023.6 in /  34659.1 hPa Calm   3.2 mph /  5.1 km/h 96 % 0.0 in /  0 mm
06:20 5.7 °F /  -14.6 °C 5.1 °F /  -14.9 °C 1023.6 in /  34659.1 hPa North 6.4 mph /  10.3 km/h 8.0 mph /  12.9 km/h 96 % 0.0 in /  0 mm
06:26 5.7 °F /  -14.6 °C 5.1 °F /  -14.9 °C 1023.6 in /  34659.1 hPa North 3.2 mph /  5.1 km/h 11.3 mph /  18.2 km/h 96 % 0.0 in /  0 mm
06:32 5.7 °F /  -14.6 °C 5.1 °F /  -14.9 °C 1023.6 in /  34659.1 hPa NNE 3.2 mph /  5.1 km/h 9.7 mph /  15.6 km/h 96 % 0.0 in /  0 mm
06:38 5.7 °F /  -14.6 °C 5.1 °F /  -14.9 °C 1023.9 in /  34669.3 hPa NE 9.7 mph /  15.6 km/h 9.7 mph /  15.6 km/h 96 % 0.0 in /  0 mm
06:44 5.7 °F /  -14.6 °C 5.1 °F /  -14.9 °C 1023.9 in /  34669.3 hPa NW 1.4 mph /  2.3 km/h 9.7 mph /  15.6 km/h 96 % 0.0 in /  0 mm
06:50 5.7 °F /  -14.6 °C 5.1 °F /  -14.9 °C 1023.9 in /  34669.3 hPa North 1.4 mph /  2.3 km/h 12.9 mph /  20.8 km/h 96 % 0.0 in /  0 mm
07:02 5.7 °F /  -14.6 °C 5.1 °F /  -14.9 °C 1023.9 in /  34669.3 hPa NNE 7.9 mph /  12.7 km/h 8.0 mph /  12.9 km/h 96 % 0.0 in /  0 mm
07:08 5.7 °F /  -14.6 °C 5.1 °F /  -14.9 °C 1023.9 in /  34669.3 hPa NNW 3.2 mph /  5.1 km/h 8.0 mph /  12.9 km/h 96 % 0.0 in /  0 mm
07:14 5.8 °F /  -14.6 °C 5.2 °F /  -14.9 °C 1023.9 in /  34669.3 hPa NNW 6.4 mph /  10.3 km/h 12.9 mph /  20.8 km/h 96 % 0.0 in /  0 mm
07:20 5.7 °F /  -14.6 °C 5.1 °F /  -14.9 °C 1023.9 in /  34669.3 hPa NNE 4.7 mph /  7.6 km/h 8.0 mph /  12.9 km/h 96 % 0.0 in /  0 mm
07:26 5.7 °F /  -14.6 °C 5.1 °F /  -14.9 °C 1023.9 in /  34669.3 hPa NE 4.7 mph /  7.6 km/h 11.3 mph /  18.2 km/h 96 % 0.0 in /  0 mm
07:32 5.7 °F /  -14.6 °C 5.1 °F /  -14.9 °C 1023.9 in /  34669.3 hPa NNW 4.7 mph /  7.6 km/h 12.9 mph /  20.8 km/h 96 % 0.0 in /  0 mm
07:38 5.7 °F /  -14.6 °C 5.3 °F /  -14.8 °C 1023.9 in /  34669.3 hPa North 11.1 mph /  17.9 km/h 12.9 mph /  20.8 km/h 97 % 0.0 in /  0 mm
07:44 5.7 °F /  -14.6 °C 5.3 °F /  -14.8 °C 1023.9 in /  34669.3 hPa North 4.7 mph /  7.6 km/h 9.7 mph /  15.6 km/h 97 % 0.0 in /  0 mm
07:50 5.7 °F /  -14.6 °C 5.3 °F /  -14.8 °C 1023.9 in /  34669.3 hPa North 6.4 mph /  10.3 km/h 8.0 mph /  12.9 km/h 97 % 0.0 in /  0 mm
07:56 5.7 °F /  -14.6 °C 5.3 °F /  -14.8 °C 1023.9 in /  34669.3 hPa NNW 4.7 mph /  7.6 km/h 11.3 mph /  18.2 km/h 97 % 0.0 in /  0 mm
08:02 5.7 °F /  -14.6 °C 5.3 °F /  -14.8 °C 1023.9 in /  34669.3 hPa North 7.9 mph /  12.7 km/h 8.0 mph /  12.9 km/h 97 % 0.0 in /  0 mm
08:08 5.7 °F /  -14.6 °C 5.3 °F /  -14.8 °C 1024.3 in /  34682.8 hPa North 6.4 mph /  10.3 km/h 8.0 mph /  12.9 km/h 97 % 0.0 in /  0 mm
08:14 5.7 °F /  -14.6 °C 5.3 °F /  -14.8 °C 1024.3 in /  34682.8 hPa NNW 1.4 mph /  2.3 km/h 8.0 mph /  12.9 km/h 97 % 0.0 in /  0 mm
08:24 5.7 °F /  -14.6 °C 5.3 °F /  -14.8 °C 1024.3 in /  34682.8 hPa NE 4.7 mph /  7.6 km/h 8.0 mph /  12.9 km/h 97 % 0.0 in /  0 mm
08:30 5.7 °F /  -14.6 °C 5.3 °F /  -14.8 °C 1024.3 in /  34682.8 hPa North 3.2 mph /  5.1 km/h 8.0 mph /  12.9 km/h 97 % 0.0 in /  0 mm
09:06 5.7 °F /  -14.6 °C 5.3 °F /  -14.8 °C 1024.3 in /  34682.8 hPa NNW 4.7 mph /  7.6 km/h 9.7 mph /  15.6 km/h 97 % 0.0 in /  0 mm
09:18 5.7 °F /  -14.6 °C 5.3 °F /  -14.8 °C 1024.3 in /  34682.8 hPa NNW 4.7 mph /  7.6 km/h 9.7 mph /  15.6 km/h 97 % 0.0 in /  0 mm
09:24 5.7 °F /  -14.6 °C 5.3 °F /  -14.8 °C 1024.6 in /  34693 hPa North 4.7 mph /  7.6 km/h 11.3 mph /  18.2 km/h 97 % 0.0 in /  0 mm
09:30 5.6 °F /  -14.7 °C 5.0 °F /  -15 °C 1024.6 in /  34693 hPa NNW 4.7 mph /  7.6 km/h 6.4 mph /  10.3 km/h 96 % 0.0 in /  0 mm
09:36 5.6 °F /  -14.7 °C 5.0 °F /  -15 °C 1024.6 in /  34693 hPa NNE 4.7 mph /  7.6 km/h 9.7 mph /  15.6 km/h 96 % 0.0 in /  0 mm
09:42 5.6 °F /  -14.7 °C 5.0 °F /  -15 °C 1024.9 in /  34703.1 hPa North 1.4 mph /  2.3 km/h 4.8 mph /  7.7 km/h 96 % 0.0 in /  0 mm
09:48 5.6 °F /  -14.7 °C 5.0 °F /  -15 °C 1024.9 in /  34703.1 hPa NE 3.2 mph /  5.1 km/h 6.4 mph /  10.3 km/h 96 % 0.0 in /  0 mm
09:54 5.7 °F /  -14.6 °C 5.1 °F /  -14.9 °C 1024.9 in /  34703.1 hPa NE 7.9 mph /  12.7 km/h 8.0 mph /  12.9 km/h 96 % 0.0 in /  0 mm
10:04 5.7 °F /  -14.6 °C 5.1 °F /  -14.9 °C 1024.9 in /  34703.1 hPa North 3.2 mph /  5.1 km/h 3.2 mph /  5.1 km/h 96 % 0.0 in /  0 mm
10:10 5.8 °F /  -14.6 °C 5.1 °F /  -14.9 °C 1024.9 in /  34703.1 hPa Calm   6.4 mph /  10.3 km/h 95 % 0.0 in /  0 mm
10:22 5.9 °F /  -14.5 °C 5.2 °F /  -14.9 °C 1025.3 in /  34716.7 hPa NNE 3.2 mph /  5.1 km/h 4.8 mph /  7.7 km/h 95 % 0.0 in /  0 mm
10:30 5.9 °F /  -14.5 °C 5.2 °F /  -14.9 °C 1025.3 in /  34716.7 hPa Calm   4.8 mph /  7.7 km/h 95 % 0.0 in /  0 mm
10:36 5.9 °F /  -14.5 °C 5.2 °F /  -14.9 °C 1025.3 in /  34716.7 hPa North 1.4 mph /  2.3 km/h 3.2 mph /  5.1 km/h 95 % 0.0 in /  0 mm
10:42 6.0 °F /  -14.4 °C 5.3 °F /  -14.8 °C 1025.6 in /  34726.8 hPa NNW 1.4 mph /  2.3 km/h 4.8 mph /  7.7 km/h 95 % 0.0 in /  0 mm
10:48 6.0 °F /  -14.4 °C 5.3 °F /  -14.8 °C 1025.6 in /  34726.8 hPa NNW 4.7 mph /  7.6 km/h 4.8 mph /  7.7 km/h 95 % 0.0 in /  0 mm
10:55 6.1 °F /  -14.4 °C 5.4 °F /  -14.8 °C 1025.6 in /  34726.8 hPa NNW 1.4 mph /  2.3 km/h 6.4 mph /  10.3 km/h 95 % 0.0 in /  0 mm
11:01 6.1 °F /  -14.4 °C 5.4 °F /  -14.8 °C 1025.6 in /  34726.8 hPa North 9.7 mph /  15.6 km/h 9.7 mph /  15.6 km/h 95 % 0.0 in /  0 mm
11:07 6.1 °F /  -14.4 °C 5.4 °F /  -14.8 °C 1025.6 in /  34726.8 hPa NNE 3.2 mph /  5.1 km/h 4.8 mph /  7.7 km/h 95 % 0.0 in /  0 mm
11:13 6.1 °F /  -14.4 °C 5.4 °F /  -14.8 °C 1025.6 in /  34726.8 hPa North 3.2 mph /  5.1 km/h 4.8 mph /  7.7 km/h 95 % 0.0 in /  0 mm
11:21 6.1 °F /  -14.4 °C 5.4 °F /  -14.8 °C 1025.6 in /  34726.8 hPa NNW 4.7 mph /  7.6 km/h 12.9 mph /  20.8 km/h 95 % 0.0 in /  0 mm
11:27 6.2 °F /  -14.3 °C 5.5 °F /  -14.7 °C 1025.6 in /  34726.8 hPa NW 4.7 mph /  7.6 km/h 8.0 mph /  12.9 km/h 95 % 0.0 in /  0 mm
11:39 6.2 °F /  -14.3 °C 5.3 °F /  -14.8 °C 1025.6 in /  34726.8 hPa NNW 3.2 mph /  5.1 km/h 11.3 mph /  18.2 km/h 94 % 0.0 in /  0 mm
11:47 6.3 °F /  -14.3 °C 5.4 °F /  -14.8 °C 1025.6 in /  34726.8 hPa North 7.9 mph /  12.7 km/h 8.0 mph /  12.9 km/h 94 % 0.0 in /  0 mm
11:53 6.3 °F /  -14.3 °C 5.4 °F /  -14.8 °C 1025.6 in /  34726.8 hPa NNW 4.7 mph /  7.6 km/h 8.0 mph /  12.9 km/h 94 % 0.0 in /  0 mm
12:01 6.4 °F /  -14.2 °C 5.4 °F /  -14.8 °C 1025.6 in /  34726.8 hPa NNW 3.2 mph /  5.1 km/h 8.0 mph /  12.9 km/h 93 % 0.0 in /  0 mm
12:07 6.4 °F /  -14.2 °C 5.4 °F /  -14.8 °C 1025.3 in /  34716.7 hPa NNE 7.9 mph /  12.7 km/h 12.9 mph /  20.8 km/h 93 % 0.0 in /  0 mm
12:13 6.3 °F /  -14.3 °C 5.3 °F /  -14.8 °C 1025.3 in /  34716.7 hPa NW 7.9 mph /  12.7 km/h 14.5 mph /  23.3 km/h 93 % 0.0 in /  0 mm
12:19 6.3 °F /  -14.3 °C 5.3 °F /  -14.8 °C 1025.3 in /  34716.7 hPa NNW 7.9 mph /  12.7 km/h 9.7 mph /  15.6 km/h 93 % 0.0 in /  0 mm
12:25 6.3 °F /  -14.3 °C 5.3 °F /  -14.8 °C 1025.3 in /  34716.7 hPa North 7.9 mph /  12.7 km/h 11.3 mph /  18.2 km/h 93 % 0.0 in /  0 mm
12:31 6.3 °F /  -14.3 °C 5.3 °F /  -14.8 °C 1025.3 in /  34716.7 hPa NNW 4.7 mph /  7.6 km/h 12.9 mph /  20.8 km/h 93 % 0.0 in /  0 mm
12:37 6.4 °F /  -14.2 °C 5.4 °F /  -14.8 °C 1025.3 in /  34716.7 hPa NNE 7.9 mph /  12.7 km/h 9.7 mph /  15.6 km/h 93 % 0.0 in /  0 mm
12:49 6.4 °F /  -14.2 °C 5.2 °F /  -14.9 °C 1025.3 in /  34716.7 hPa North 1.4 mph /  2.3 km/h 9.7 mph /  15.6 km/h 92 % 0.0 in /  0 mm
12:55 6.6 °F /  -14.1 °C 5.4 °F /  -14.8 °C 1025.3 in /  34716.7 hPa NNE 9.7 mph /  15.6 km/h 11.3 mph /  18.2 km/h 92 % 0.0 in /  0 mm
13:01 6.6 °F /  -14.1 °C 5.4 °F /  -14.8 °C 1024.9 in /  34703.1 hPa NNW 6.4 mph /  10.3 km/h 11.3 mph /  18.2 km/h 92 % 0.0 in /  0 mm
13:07 6.6 °F /  -14.1 °C 5.4 °F /  -14.8 °C 1024.9 in /  34703.1 hPa NW 13.0 mph /  20.9 km/h 14.5 mph /  23.3 km/h 92 % 0.0 in /  0 mm
13:13 6.7 °F /  -14.1 °C 5.5 °F /  -14.7 °C 1024.9 in /  34703.1 hPa NE 6.4 mph /  10.3 km/h 11.3 mph /  18.2 km/h 92 % 0.0 in /  0 mm
13:19 6.8 °F /  -14 °C 5.6 °F /  -14.7 °C 1024.9 in /  34703.1 hPa North 3.2 mph /  5.1 km/h 11.3 mph /  18.2 km/h 92 % 0.0 in /  0 mm
13:25 6.9 °F /  -13.9 °C 5.5 °F /  -14.7 °C 1024.9 in /  34703.1 hPa North 14.3 mph /  23 km/h 14.5 mph /  23.3 km/h 91 % 0.0 in /  0 mm
13:31 6.9 °F /  -13.9 °C 5.5 °F /  -14.7 °C 1024.9 in /  34703.1 hPa North 6.4 mph /  10.3 km/h 8.0 mph /  12.9 km/h 91 % 0.0 in /  0 mm
13:37 6.9 °F /  -13.9 °C 5.5 °F /  -14.7 °C 1024.9 in /  34703.1 hPa NNE 3.2 mph /  5.1 km/h 6.4 mph /  10.3 km/h 91 % 0.0 in /  0 mm
13:43 6.9 °F /  -13.9 °C 5.5 °F /  -14.7 °C 1024.6 in /  34693 hPa NE 7.9 mph /  12.7 km/h 11.3 mph /  18.2 km/h 91 % 0.0 in /  0 mm
13:49 6.9 °F /  -13.9 °C 5.4 °F /  -14.8 °C 1024.6 in /  34693 hPa NNW 4.7 mph /  7.6 km/h 14.5 mph /  23.3 km/h 90 % 0.0 in /  0 mm
13:55 7.1 °F /  -13.8 °C 5.6 °F /  -14.7 °C 1024.6 in /  34693 hPa ENE 6.4 mph /  10.3 km/h 11.3 mph /  18.2 km/h 90 % 0.0 in /  0 mm
14:01 7.1 °F /  -13.8 °C 5.4 °F /  -14.8 °C 1024.6 in /  34693 hPa NNW 4.7 mph /  7.6 km/h 16.1 mph /  25.9 km/h 89 % 0.0 in /  0 mm
14:07 7.1 °F /  -13.8 °C 5.2 °F /  -14.9 °C 1024.6 in /  34693 hPa NNE 4.7 mph /  7.6 km/h 14.5 mph /  23.3 km/h 88 % 0.0 in /  0 mm
14:13 7.1 °F /  -13.8 °C 5.4 °F /  -14.8 °C 1024.6 in /  34693 hPa North 4.7 mph /  7.6 km/h 12.9 mph /  20.8 km/h 89 % 0.0 in /  0 mm
14:19 7.1 °F /  -13.8 °C 5.4 °F /  -14.8 °C 1024.6 in /  34693 hPa NNE 3.2 mph /  5.1 km/h 11.3 mph /  18.2 km/h 89 % 0.0 in /  0 mm
14:31 7.1 °F /  -13.8 °C 5.2 °F /  -14.9 °C 1024.6 in /  34693 hPa NE 3.2 mph /  5.1 km/h 9.7 mph /  15.6 km/h 88 % 0.0 in /  0 mm
14:37 7.1 °F /  -13.8 °C 5.2 °F /  -14.9 °C 1024.3 in /  34682.8 hPa NNW 4.7 mph /  7.6 km/h 12.9 mph /  20.8 km/h 88 % 0.0 in /  0 mm
14:43 7.0 °F /  -13.9 °C 5.1 °F /  -14.9 °C 1024.3 in /  34682.8 hPa NNE 4.7 mph /  7.6 km/h 12.9 mph /  20.8 km/h 88 % 0.0 in /  0 mm
14:49 6.9 °F /  -13.9 °C 5.1 °F /  -14.9 °C 1024.3 in /  34682.8 hPa NNW 7.9 mph /  12.7 km/h 9.7 mph /  15.6 km/h 88 % 0.0 in /  0 mm
14:55 6.9 °F /  -13.9 °C 5.1 °F /  -14.9 °C 1024.3 in /  34682.8 hPa NW 3.2 mph /  5.1 km/h 8.0 mph /  12.9 km/h 88 % 0.0 in /  0 mm
15:01 6.9 °F /  -13.9 °C 5.1 °F /  -14.9 °C 1024.3 in /  34682.8 hPa North 4.7 mph /  7.6 km/h 9.7 mph /  15.6 km/h 88 % 0.0 in /  0 mm
15:07 6.8 °F /  -14 °C 5.1 °F /  -14.9 °C 1024.3 in /  34682.8 hPa NNW 6.4 mph /  10.3 km/h 6.4 mph /  10.3 km/h 89 % 0.0 in /  0 mm
15:13 6.9 °F /  -13.9 °C 5.2 °F /  -14.9 °C 1024.3 in /  34682.8 hPa NNE 7.9 mph /  12.7 km/h 9.7 mph /  15.6 km/h 89 % 0.0 in /  0 mm
15:19 6.9 °F /  -13.9 °C 5.2 °F /  -14.9 °C 1024.3 in /  34682.8 hPa North 3.2 mph /  5.1 km/h 6.4 mph /  10.3 km/h 89 % 0.0 in /  0 mm
15:25 6.9 °F /  -13.9 °C 5.2 °F /  -14.9 °C 1024.3 in /  34682.8 hPa NNW 1.4 mph /  2.3 km/h 6.4 mph /  10.3 km/h 89 % 0.0 in /  0 mm
15:31 7.0 °F /  -13.9 °C 5.3 °F /  -14.8 °C 1024.3 in /  34682.8 hPa North 3.2 mph /  5.1 km/h 4.8 mph /  7.7 km/h 89 % 0.0 in /  0 mm
15:37 7.1 °F /  -13.8 °C 5.4 °F /  -14.8 °C 1024.3 in /  34682.8 hPa North 1.4 mph /  2.3 km/h 4.8 mph /  7.7 km/h 89 % 0.0 in /  0 mm
15:43 7.1 °F /  -13.8 °C 5.4 °F /  -14.8 °C 1024.3 in /  34682.8 hPa NW 1.4 mph /  2.3 km/h 3.2 mph /  5.1 km/h 89 % 0.0 in /  0 mm
15:55 6.9 °F /  -13.9 °C 5.2 °F /  -14.9 °C 1024.3 in /  34682.8 hPa NNE 6.4 mph /  10.3 km/h 9.7 mph /  15.6 km/h 89 % 0.0 in /  0 mm
16:15 6.9 °F /  -13.9 °C 5.2 °F /  -14.9 °C 1024.3 in /  34682.8 hPa Calm   6.4 mph /  10.3 km/h 89 % 0.0 in /  0 mm
16:21 6.9 °F /  -13.9 °C 5.4 °F /  -14.8 °C 1024.6 in /  34693 hPa North 1.4 mph /  2.3 km/h 3.2 mph /  5.1 km/h 90 % 0.0 in /  0 mm
16:31 6.9 °F /  -13.9 °C 5.2 °F /  -14.9 °C 1024.3 in /  34682.8 hPa North 1.4 mph /  2.3 km/h 3.2 mph /  5.1 km/h 89 % 0.0 in /  0 mm
16:37 6.9 °F /  -13.9 °C 5.2 °F /  -14.9 °C 1024.3 in /  34682.8 hPa North 3.2 mph /  5.1 km/h 3.2 mph /  5.1 km/h 89 % 0.0 in /  0 mm
16:43 6.9 °F /  -13.9 °C 5.2 °F /  -14.9 °C 1024.6 in /  34693 hPa NNW 1.4 mph /  2.3 km/h 3.2 mph /  5.1 km/h 89 % 0.0 in /  0 mm
16:49 6.9 °F /  -13.9 °C 5.2 °F /  -14.9 °C 1024.3 in /  34682.8 hPa NNE 1.4 mph /  2.3 km/h 1.6 mph /  2.6 km/h 89 % 0.0 in /  0 mm
16:55 6.9 °F /  -13.9 °C 5.4 °F /  -14.8 °C 1024.6 in /  34693 hPa NW 1.4 mph /  2.3 km/h 1.6 mph /  2.6 km/h 90 % 0.0 in /  0 mm
17:01 6.8 °F /  -14 °C 5.3 °F /  -14.8 °C 1024.6 in /  34693 hPa NW 1.4 mph /  2.3 km/h 3.2 mph /  5.1 km/h 90 % 0.0 in /  0 mm
17:07 6.9 °F /  -13.9 °C 5.4 °F /  -14.8 °C 1024.6 in /  34693 hPa WNW 1.4 mph /  2.3 km/h 4.8 mph /  7.7 km/h 90 % 0.0 in /  0 mm
17:13 6.8 °F /  -14 °C 5.3 °F /  -14.8 °C 1024.6 in /  34693 hPa West 1.4 mph /  2.3 km/h 8.0 mph /  12.9 km/h 90 % 0.0 in /  0 mm
17:19 6.8 °F /  -14 °C 5.3 °F /  -14.8 °C 1024.6 in /  34693 hPa WNW 3.2 mph /  5.1 km/h 8.0 mph /  12.9 km/h 90 % 0.0 in /  0 mm
17:29 6.6 °F /  -14.1 °C 5.2 °F /  -14.9 °C 1024.6 in /  34693 hPa NW 6.4 mph /  10.3 km/h 11.3 mph /  18.2 km/h 91 % 0.0 in /  0 mm
17:37 6.4 °F /  -14.2 °C 5.0 °F /  -15 °C 1024.6 in /  34693 hPa NNW 4.7 mph /  7.6 km/h 8.0 mph /  12.9 km/h 91 % 0.0 in /  0 mm
17:43 6.4 °F /  -14.2 °C 5.0 °F /  -15 °C 1024.6 in /  34693 hPa NNW 1.4 mph /  2.3 km/h 4.8 mph /  7.7 km/h 91 % 0.0 in /  0 mm
17:55 6.4 °F /  -14.2 °C 5.2 °F /  -14.9 °C 1024.6 in /  34693 hPa North 4.7 mph /  7.6 km/h 6.4 mph /  10.3 km/h 92 % 0.0 in /  0 mm
18:01 6.4 °F /  -14.2 °C 5.2 °F /  -14.9 °C 1024.6 in /  34693 hPa NNW 3.2 mph /  5.1 km/h 4.8 mph /  7.7 km/h 92 % 0.0 in /  0 mm
18:11 6.4 °F /  -14.2 °C 5.2 °F /  -14.9 °C 1024.6 in /  34693 hPa NW 1.4 mph /  2.3 km/h 4.8 mph /  7.7 km/h 92 % 0.0 in /  0 mm
18:18 6.4 °F /  -14.2 °C 5.2 °F /  -14.9 °C 1024.9 in /  34703.1 hPa NNW 3.2 mph /  5.1 km/h 8.0 mph /  12.9 km/h 92 % 0.0 in /  0 mm
18:24 6.4 °F /  -14.2 °C 5.2 °F /  -14.9 °C 1024.9 in /  34703.1 hPa NNW 4.7 mph /  7.6 km/h 4.8 mph /  7.7 km/h 92 % 0.0 in /  0 mm
18:36 6.3 °F /  -14.3 °C 5.1 °F /  -14.9 °C 1024.9 in /  34703.1 hPa NW 1.4 mph /  2.3 km/h 6.4 mph /  10.3 km/h 92 % 0.0 in /  0 mm
18:42 6.3 °F /  -14.3 °C 5.1 °F /  -14.9 °C 1024.9 in /  34703.1 hPa NNW 1.4 mph /  2.3 km/h 4.8 mph /  7.7 km/h 92 % 0.0 in /  0 mm
18:48 6.3 °F /  -14.3 °C 5.1 °F /  -14.9 °C 1024.9 in /  34703.1 hPa Calm   6.4 mph /  10.3 km/h 92 % 0.0 in /  0 mm
18:56 6.3 °F /  -14.3 °C 5.1 °F /  -14.9 °C 1024.9 in /  34703.1 hPa NW 1.4 mph /  2.3 km/h 8.0 mph /  12.9 km/h 92 % 0.0 in /  0 mm
19:02 6.3 °F /  -14.3 °C 5.1 °F /  -14.9 °C 1024.9 in /  34703.1 hPa Calm   6.4 mph /  10.3 km/h 92 % 0.0 in /  0 mm
19:14 6.2 °F /  -14.3 °C 5.0 °F /  -15 °C 1024.9 in /  34703.1 hPa NW 3.2 mph /  5.1 km/h 4.8 mph /  7.7 km/h 92 % 0.0 in /  0 mm
19:20 6.1 °F /  -14.4 °C 4.9 °F /  -15.1 °C 1024.9 in /  34703.1 hPa Calm   4.8 mph /  7.7 km/h 92 % 0.0 in /  0 mm
19:26 6.0 °F /  -14.4 °C 5.0 °F /  -15 °C 1024.9 in /  34703.1 hPa NNW 4.7 mph /  7.6 km/h 6.4 mph /  10.3 km/h 93 % 0.0 in /  0 mm
19:32 5.9 °F /  -14.5 °C 4.9 °F /  -15.1 °C 1024.9 in /  34703.1 hPa NNW 1.4 mph /  2.3 km/h 3.2 mph /  5.1 km/h 93 % 0.0 in /  0 mm
19:38 5.8 °F /  -14.6 °C 4.8 °F /  -15.1 °C 1024.9 in /  34703.1 hPa Calm   3.2 mph /  5.1 km/h 93 % 0.0 in /  0 mm
19:44 5.7 °F /  -14.6 °C 4.7 °F /  -15.2 °C 1024.9 in /  34703.1 hPa NW 1.4 mph /  2.3 km/h 1.6 mph /  2.6 km/h 93 % 0.0 in /  0 mm
19:50 5.6 °F /  -14.7 °C 4.6 °F /  -15.2 °C 1024.9 in /  34703.1 hPa NNW 1.4 mph /  2.3 km/h 1.6 mph /  2.6 km/h 93 % 0.0 in /  0 mm
19:56 5.4 °F /  -14.8 °C 4.5 °F /  -15.3 °C 1024.9 in /  34703.1 hPa NW 3.2 mph /  5.1 km/h 4.8 mph /  7.7 km/h 94 % 0.0 in /  0 mm
20:02 5.4 °F /  -14.8 °C 4.5 °F /  -15.3 °C 1024.9 in /  34703.1 hPa NNW 3.2 mph /  5.1 km/h 4.8 mph /  7.7 km/h 94 % 0.0 in /  0 mm
20:08 5.3 °F /  -14.8 °C 4.4 °F /  -15.3 °C 1024.9 in /  34703.1 hPa NNW 1.4 mph /  2.3 km/h 4.8 mph /  7.7 km/h 94 % 0.0 in /  0 mm
20:14 5.3 °F /  -14.8 °C 4.4 °F /  -15.3 °C 1024.9 in /  34703.1 hPa Calm   4.8 mph /  7.7 km/h 94 % 0.0 in /  0 mm
20:26 5.1 °F /  -14.9 °C 4.2 °F /  -15.4 °C 1024.9 in /  34703.1 hPa NW 4.7 mph /  7.6 km/h 4.8 mph /  7.7 km/h 94 % 0.0 in /  0 mm
20:32 5.0 °F /  -15 °C 4.1 °F /  -15.5 °C 1024.9 in /  34703.1 hPa NNW 1.4 mph /  2.3 km/h 4.8 mph /  7.7 km/h 94 % 0.0 in /  0 mm
20:38 4.9 °F /  -15.1 °C 4.0 °F /  -15.6 °C 1024.9 in /  34703.1 hPa NNW 3.2 mph /  5.1 km/h 4.8 mph /  7.7 km/h 94 % 0.0 in /  0 mm
20:44 4.8 °F /  -15.1 °C 3.9 °F /  -15.6 °C 1024.9 in /  34703.1 hPa North 1.4 mph /  2.3 km/h 3.2 mph /  5.1 km/h 94 % 0.0 in /  0 mm
20:50 4.7 °F /  -15.2 °C 3.8 °F /  -15.7 °C 1024.9 in /  34703.1 hPa NNW 1.4 mph /  2.3 km/h 1.6 mph /  2.6 km/h 94 % 0.0 in /  0 mm
20:56 4.6 °F /  -15.2 °C 3.9 °F /  -15.6 °C 1024.9 in /  34703.1 hPa Calm   3.2 mph /  5.1 km/h 95 % 0.0 in /  0 mm
21:08 4.5 °F /  -15.3 °C 3.8 °F /  -15.7 °C 1024.9 in /  34703.1 hPa Calm     95 % 0.0 in /  0 mm
21:16 4.4 °F /  -15.3 °C 3.7 °F /  -15.7 °C 1024.9 in /  34703.1 hPa Calm   1.6 mph /  2.6 km/h 95 % 0.0 in /  0 mm
21:22 4.2 °F /  -15.4 °C 3.5 °F /  -15.8 °C 1024.9 in /  34703.1 hPa Calm   1.6 mph /  2.6 km/h 95 % 0.0 in /  0 mm
21:29 4.2 °F /  -15.4 °C 3.5 °F /  -15.8 °C 1024.9 in /  34703.1 hPa North 1.4 mph /  2.3 km/h 1.6 mph /  2.6 km/h 95 % 0.0 in /  0 mm
21:39 4.3 °F /  -15.4 °C 3.7 °F /  -15.7 °C 1024.9 in /  34703.1 hPa NW 3.2 mph /  5.1 km/h 4.8 mph /  7.7 km/h 96 % 0.0 in /  0 mm
21:45 4.2 °F /  -15.4 °C 3.6 °F /  -15.8 °C 1024.9 in /  34703.1 hPa NW 1.4 mph /  2.3 km/h 3.2 mph /  5.1 km/h 96 % 0.0 in /  0 mm
21:51 4.3 °F /  -15.4 °C 3.7 °F /  -15.7 °C 1024.9 in /  34703.1 hPa NW 1.4 mph /  2.3 km/h 3.2 mph /  5.1 km/h 96 % 0.0 in /  0 mm
22:01 4.3 °F /  -15.4 °C 3.7 °F /  -15.7 °C 1024.9 in /  34703.1 hPa NW 1.4 mph /  2.3 km/h 1.6 mph /  2.6 km/h 96 % 0.0 in /  0 mm
22:07 4.3 °F /  -15.4 °C 3.7 °F /  -15.7 °C 1024.9 in /  34703.1 hPa NNW 1.4 mph /  2.3 km/h 3.2 mph /  5.1 km/h 96 % 0.0 in /  0 mm
22:17 4.0 °F /  -15.6 °C 3.4 °F /  -15.9 °C 1024.9 in /  34703.1 hPa Calm   3.2 mph /  5.1 km/h 96 % 0.0 in /  0 mm
22:25 4.0 °F /  -15.6 °C 3.4 °F /  -15.9 °C 1024.6 in /  34693 hPa NNE 1.4 mph /  2.3 km/h 3.2 mph /  5.1 km/h 96 % 0.0 in /  0 mm
22:31 3.9 °F /  -15.6 °C 3.3 °F /  -15.9 °C 1024.6 in /  34693 hPa Calm   1.6 mph /  2.6 km/h 96 % 0.0 in /  0 mm
22:37 4.0 °F /  -15.6 °C 3.4 °F /  -15.9 °C 1024.6 in /  34693 hPa Calm   1.6 mph /  2.6 km/h 96 % 0.0 in /  0 mm
22:43 3.8 °F /  -15.7 °C 3.2 °F /  -16 °C 1024.6 in /  34693 hPa Calm   1.6 mph /  2.6 km/h 96 % 0.0 in /  0 mm
22:49 3.7 °F /  -15.7 °C 3.1 °F /  -16.1 °C 1024.6 in /  34693 hPa Calm   1.6 mph /  2.6 km/h 96 % 0.0 in /  0 mm
22:55 3.7 °F /  -15.7 °C 3.1 °F /  -16.1 °C 1024.6 in /  34693 hPa Calm   1.6 mph /  2.6 km/h 96 % 0.0 in /  0 mm
23:07 3.8 °F /  -15.7 °C 3.4 °F /  -15.9 °C 1024.6 in /  34693 hPa NW 1.4 mph /  2.3 km/h 3.2 mph /  5.1 km/h 97 % 0.0 in /  0 mm
23:13 3.8 °F /  -15.7 °C 3.4 °F /  -15.9 °C 1024.6 in /  34693 hPa NW 1.4 mph /  2.3 km/h 3.2 mph /  5.1 km/h 97 % 0.0 in /  0 mm
23:21 3.8 °F /  -15.7 °C 3.4 °F /  -15.9 °C 1024.6 in /  34693 hPa Calm   3.2 mph /  5.1 km/h 97 % 0.0 in /  0 mm
23:27 3.8 °F /  -15.7 °C 3.4 °F /  -15.9 °C 1024.6 in /  34693 hPa NNW 1.4 mph /  2.3 km/h 1.6 mph /  2.6 km/h 97 % 0.0 in /  0 mm
23:33 3.8 °F /  -15.7 °C 3.4 °F /  -15.9 °C 1024.6 in /  34693 hPa NNW 1.4 mph /  2.3 km/h 3.2 mph /  5.1 km/h 97 % 0.0 in /  0 mm
23:39 3.7 °F /  -15.7 °C 3.3 °F /  -15.9 °C 1024.6 in /  34693 hPa Calm   3.2 mph /  5.1 km/h 97 % 0.0 in /  0 mm
23:45 3.7 °F /  -15.7 °C 3.3 °F /  -15.9 °C 1024.6 in /  34693 hPa NNW 1.4 mph /  2.3 km/h 3.2 mph /  5.1 km/h 97 % 0.0 in /  0 mm
23:51 3.6 °F /  -15.8 °C 3.2 °F /  -16 °C 1024.6 in /  34693 hPa NNW 1.4 mph /  2.3 km/h 3.2 mph /  5.1 km/h 97 % 0.0 in /  0 mm
23:58 3.4 °F /  -15.9 °C 3.0 °F /  -16.1 °C 1024.6 in /  34693 hPa NNW 1.4 mph /  2.3 km/h 1.6 mph /  2.6 km/h 97 % 0.0 in /  0 mm
Meteo18
Compliments of Weather Underground - 4 mb

Script developed by  Jim McMurry - jmcmurry@mwt.net Adapted for the template by  Wim van der Kuil - Leuven-Template.eu

You find our weather info also at:

European Weather Network

Weather Underground

Equipment we use:

Weather-station
Davis Vue

Weather-program
Meteobridge

Weather-server
Raspberry PI 2 B+

Provider
1 and 1

Davis Vue

Meteobridge

Raspberry PI 2 B+

1 and 1